Time;durP1;ratioP1;P1;durP2;ratioP2;P2;SDS_P1;SDS_P2;PMS_P1;PMS_P2;Temp;Humidity;BMP_temperature;BMP_pressure;BME280_temperature;BME280_humidity;BME280_pressure;Samples;Min_cycle;Max_cycle;Signal;HPM_P1;HPM_P2
2023/12/20 00:01:49;;;;;;;3.78;1.50;;;;;;;4.10;79.04;98218.63;4965585;28;20046;-68
2023/12/20 00:04:16;;;;;;;2.30;1.60;;;;;;;4.25;79.30;98234.81;4982491;28;20528;-71
2023/12/20 00:06:42;;;;;;;1.98;1.48;;;;;;;4.24;78.90;98238.25;4950132;28;20049;-71
2023/12/20 00:09:08;;;;;;;1.73;1.33;;;;;;;4.19;79.89;98244.28;4948082;28;20062;-71
2023/12/20 00:11:41;;;;;;;2.97;1.33;;;;;;;3.86;79.44;98197.34;4946422;28;21045;-69
2023/12/20 00:14:11;;;;;;;1.77;1.33;;;;;;;3.82;79.16;98179.38;4969680;28;20136;-70
2023/12/20 00:16:37;;;;;;;2.45;1.50;;;;;;;4.11;79.64;98230.63;4999095;28;20043;-70
2023/12/20 00:19:03;;;;;;;1.92;1.38;;;;;;;3.98;79.48;98216.97;4962780;28;20092;-70
2023/12/20 00:21:29;;;;;;;2.42;1.40;;;;;;;4.05;79.23;98235.84;4982752;28;20043;-71
2023/12/20 00:23:55;;;;;;;3.38;1.95;;;;;;;3.94;79.09;98222.19;4982906;28;20048;-70
2023/12/20 00:26:21;;;;;;;3.47;1.35;;;;;;;3.92;79.12;98220.47;4990086;28;20475;-72
2023/12/20 00:28:47;;;;;;;2.38;1.45;;;;;;;3.96;79.34;98217.88;4961303;28;20073;-69
2023/12/20 00:31:15;;;;;;;4.43;1.60;;;;;;;3.99;78.96;98235.88;4969969;28;20088;-71
2023/12/20 00:33:43;;;;;;;2.28;1.63;;;;;;;4.08;78.96;98246.13;4984588;28;20463;-69
2023/12/20 00:36:14;;;;;;;1.92;1.30;;;;;;;3.86;79.26;98217.94;4982301;28;20567;-70
2023/12/20 00:38:39;;;;;;;2.28;1.50;;;;;;;3.92;79.38;98228.19;5001131;28;20054;-69
2023/12/20 00:41:08;;;;;;;2.03;1.58;;;;;;;4.08;79.16;98240.97;4964388;28;20047;-70
2023/12/20 00:43:33;;;;;;;2.28;1.55;;;;;;;4.00;78.61;98232.44;5001955;28;20096;-70
2023/12/20 00:46:02;;;;;;;2.50;1.75;;;;;;;4.17;79.14;98251.19;4966285;28;20042;-71
2023/12/20 00:48:31;;;;;;;3.22;1.50;;;;;;;4.11;78.94;98238.34;4984082;28;20048;-70
2023/12/20 00:51:03;;;;;;;2.35;1.45;;;;;;;4.24;79.00;98251.13;4980309;28;20065;-71
2023/12/20 00:53:43;;;;;;;3.92;1.58;;;;;;;4.10;79.06;98218.63;4999774;28;20624;-72
2023/12/20 00:56:09;;;;;;;1.92;1.38;;;;;;;4.12;78.58;98226.34;5001452;28;20034;-71
2023/12/20 00:58:35;;;;;;;2.47;1.63;;;;;;;4.20;78.89;98240.84;5000815;28;21519;-71
2023/12/20 01:01:01;;;;;;;2.47;1.45;;;;;;;4.15;78.84;98224.59;4983197;28;20401;-71
2023/12/20 01:03:28;;;;;;;4.07;1.80;;;;;;;4.17;78.55;98225.44;4966740;28;20400;-71
2023/12/20 01:05:57;;;;;;;5.20;2.00;;;;;;;3.96;78.93;98194.72;4982675;28;20126;-71
2023/12/20 01:08:25;;;;;;;5.20;2.00;;;;;;;4.33;78.46;98226.16;4967936;28;20134;-71
2023/12/20 01:10:52;;;;;;;3.05;2.05;;;;;;;4.29;79.00;98208.19;4981923;28;20240;-70
2023/12/20 01:13:21;;;;;;;3.33;2.13;;;;;;;4.34;78.55;98203.81;4983268;28;20090;-70
2023/12/20 01:15:47;;;;;;;5.07;2.85;;;;;;;4.44;78.73;98213.19;4968432;28;20133;-70
2023/12/20 01:18:14;;;;;;;4.50;2.13;;;;;;;4.31;78.68;98196.13;4983953;28;20046;-70
2023/12/20 01:20:41;;;;;;;3.38;2.10;;;;;;;4.51;79.30;98225.16;4973018;28;20045;-71
2023/12/20 01:23:08;;;;;;;2.95;2.17;;;;;;;4.45;78.56;98199.44;4964043;28;20122;-71
2023/12/20 01:25:36;;;;;;;4.38;2.28;;;;;;;4.38;78.38;98192.63;4967494;28;20034;-70
2023/12/20 01:28:03;;;;;;;2.88;2.00;;;;;;;4.53;78.67;98223.38;4965977;28;20042;-72
2023/12/20 01:30:28;;;;;;;3.47;2.47;;;;;;;4.09;78.48;98141.41;4966338;28;20074;-70
2023/12/20 01:32:54;;;;;;;3.50;2.30;;;;;;;3.88;78.04;98126.13;4980472;28;20053;-71
2023/12/20 01:35:20;;;;;;;3.45;2.22;;;;;;;4.29;78.00;98206.44;4959095;28;20076;-70
2023/12/20 01:37:48;;;;;;;2.92;2.03;;;;;;;4.22;78.35;98208.22;4972273;28;20123;-71
2023/12/20 01:40:14;;;;;;;3.50;1.70;;;;;;;4.31;78.38;98216.72;4979344;28;20046;-72
2023/12/20 01:42:43;;;;;;;3.50;2.03;;;;;;;4.12;78.43;98196.28;4983355;28;20042;-71
2023/12/20 01:45:11;;;;;;;5.35;2.55;;;;;;;4.21;78.65;98203.94;4999143;28;20591;-70
2023/12/20 01:47:37;;;;;;;3.60;1.60;;;;;;;4.36;78.32;98227.84;4965306;28;20040;-71
2023/12/20 01:50:07;;;;;;;4.07;1.60;;;;;;;4.40;78.31;98233.84;4966653;28;20045;-70
2023/12/20 01:52:37;;;;;;;3.58;1.50;;;;;;;4.26;78.44;98203.06;4983503;28;20495;-70
2023/12/20 01:55:13;;;;;;;1.85;1.40;;;;;;;4.07;78.57;98168.00;4983880;28;20049;-71
2023/12/20 01:57:41;;;;;;;3.67;1.60;;;;;;;4.06;78.01;98150.88;4981661;28;20038;-71
2023/12/20 02:00:09;;;;;;;3.70;2.00;;;;;;;4.29;78.25;98192.72;4964894;28;20137;-71
2023/12/20 02:02:39;;;;;;;3.38;2.20;;;;;;;4.36;79.01;98196.94;4956730;28;20136;-72
2023/12/20 02:05:08;;;;;;;2.97;1.83;;;;;;;4.33;78.18;98191.81;4982292;28;20039;-71
2023/12/20 02:07:34;;;;;;;4.10;1.70;;;;;;;4.29;78.45;98198.72;4983486;28;20096;-71
2023/12/20 02:10:04;;;;;;;5.63;1.85;;;;;;;4.19;78.40;98177.34;4966630;28;20041;-71
2023/12/20 02:12:30;;;;;;;4.15;1.98;;;;;;;4.24;78.29;98181.63;4947046;28;20042;-70
2023/12/20 02:14:56;;;;;;;3.63;2.03;;;;;;;4.43;78.39;98206.31;4969764;28;20061;-70
2023/12/20 02:17:23;;;;;;;6.35;2.22;;;;;;;4.04;78.18;98124.28;4961513;28;20031;-70
2023/12/20 02:19:52;;;;;;;5.30;2.78;;;;;;;4.55;77.83;98202.78;4981921;28;20053;-70
2023/12/20 02:22:25;;;;;;;6.55;2.85;;;;;;;4.51;77.85;98203.66;4948587;28;20038;-71
2023/12/20 02:24:51;;;;;;;3.67;1.85;;;;;;;4.39;77.97;98193.50;4962776;28;20049;-69
2023/12/20 02:27:24;;;;;;;5.47;2.33;;;;;;;4.15;77.44;98169.69;4947377;28;20037;-71
2023/12/20 02:29:50;;;;;;;5.85;3.10;;;;;;;3.91;77.53;98144.13;4944903;28;20042;-71
2023/12/20 02:32:20;;;;;;;4.90;2.28;;;;;;;4.01;78.06;98172.38;4963800;28;20195;-71
2023/12/20 02:34:49;;;;;;;4.38;1.55;;;;;;;3.87;77.88;98168.16;4962748;28;20386;-73
2023/12/20 02:37:15;;;;;;;3.08;1.48;;;;;;;3.91;77.90;98159.56;4964819;28;21578;-71
2023/12/20 02:39:44;;;;;;;4.55;1.88;;;;;;;3.76;78.07;98136.53;4947785;28;20072;-71
2023/12/20 02:42:12;;;;;;;1.60;1.10;;;;;;;3.91;78.43;98156.16;4946442;28;20038;-71
2023/12/20 02:44:38;;;;;;;2.83;1.20;;;;;;;4.01;78.20;98178.34;4963736;28;20416;-70
2023/12/20 02:47:04;;;;;;;2.10;1.20;;;;;;;3.71;77.69;98136.59;4962563;28;20461;-70
2023/12/20 02:49:33;;;;;;;1.95;1.20;;;;;;;4.02;78.17;98189.53;4967938;28;20058;-73
2023/12/20 02:52:00;;;;;;;1.88;1.30;;;;;;;3.78;77.92;98150.25;4964444;28;20047;-70
2023/12/20 02:54:26;;;;;;;2.72;1.50;;;;;;;3.83;78.06;98156.22;4964635;28;20114;-70
2023/12/20 02:56:52;;;;;;;3.80;1.35;;;;;;;4.00;78.07;98188.69;4964167;28;20042;-70
2023/12/20 02:59:18;;;;;;;2.53;1.50;;;;;;;3.36;77.86;98078.53;4963430;28;20074;-72
2023/12/20 03:01:46;;;;;;;3.05;1.98;;;;;;;3.78;77.50;98155.41;4951469;28;20106;-72
2023/12/20 03:04:13;;;;;;;3.75;2.00;;;;;;;3.95;78.23;98183.56;4963866;28;20046;-70
2023/12/20 03:06:41;;;;;;;3.13;1.95;;;;;;;4.00;77.82;98196.41;4949765;28;20041;-71
2023/12/20 03:09:07;;;;;;;5.03;2.70;;;;;;;3.59;78.41;98116.94;4963033;28;20075;-72
2023/12/20 03:11:33;;;;;;;3.55;2.08;;;;;;;3.43;77.98;98082.75;4982099;28;20045;-73
2023/12/20 03:13:59;;;;;;;2.63;1.70;;;;;;;4.08;78.50;98181.75;4952509;28;20053;-69
2023/12/20 03:16:33;;;;;;;4.40;2.05;;;;;;;3.72;78.91;98127.13;4960184;28;20039;-70
2023/12/20 03:18:59;;;;;;;3.78;2.10;;;;;;;4.09;78.66;98188.59;4967882;28;20232;-70
2023/12/20 03:21:24;;;;;;;3.35;2.20;;;;;;;4.07;78.80;98187.78;4984623;28;20141;-71
2023/12/20 03:23:51;;;;;;;4.47;2.50;;;;;;;4.12;77.46;98206.59;4970152;28;20113;-71
2023/12/20 03:26:17;;;;;;;3.10;2.47;;;;;;;4.07;78.19;98205.78;4971284;28;20046;-70
2023/12/20 03:28:46;;;;;;;4.57;2.53;;;;;;;3.46;78.08;98107.59;4973656;28;20448;-69
2023/12/20 03:31:12;;;;;;;5.95;2.95;;;;;;;3.84;78.14;98144.19;4970170;28;20062;-71
2023/12/20 03:33:41;;;;;;;4.55;2.33;;;;;;;3.81;78.04;98139.94;4983660;28;20042;-71
2023/12/20 03:36:10;;;;;;;3.97;2.45;;;;;;;3.99;78.48;98171.53;4985476;28;20404;-72
2023/12/20 03:38:36;;;;;;;4.07;2.20;;;;;;;4.08;78.58;98186.91;4984349;28;20053;-71
2023/12/20 03:41:05;;;;;;;2.58;2.20;;;;;;;3.87;78.43;98151.88;4967407;28;20041;-71
2023/12/20 03:43:33;;;;;;;3.17;2.50;;;;;;;3.94;78.73;98170.69;4984846;28;20390;-72
2023/12/20 03:45:59;;;;;;;3.67;2.30;;;;;;;3.98;78.50;98167.25;4983846;28;20042;-69
2023/12/20 03:48:26;;;;;;;5.22;2.72;;;;;;;4.03;78.55;98179.19;4977982;28;20054;-70
2023/12/20 03:50:57;;;;;;;5.18;2.67;;;;;;;3.60;78.72;98112.63;5000828;28;20412;-71
2023/12/20 03:53:23;;;;;;;4.57;2.92;;;;;;;3.55;78.52;98094.69;4984270;28;20170;-70
2023/12/20 03:55:55;;;;;;;4.82;3.00;;;;;;;3.60;78.21;98094.63;4967623;28;20046;-71
2023/12/20 03:58:21;;;;;;;4.65;2.78;;;;;;;4.03;78.46;98152.63;4951672;28;20049;-69
2023/12/20 04:00:47;;;;;;;4.97;2.72;;;;;;;4.20;78.57;98179.06;4983119;28;20038;-69
2023/12/20 04:03:18;;;;;;;6.05;3.03;;;;;;;4.16;78.17;98169.66;4987154;28;20098;-72
2023/12/20 04:05:50;;;;;;;3.47;2.60;;;;;;;4.32;78.51;98190.97;4965447;28;20042;-70
2023/12/20 04:08:16;;;;;;;8.20;2.70;;;;;;;4.18;78.32;98177.38;4983687;28;20038;-71
2023/12/20 04:10:52;;;;;;;5.03;2.78;;;;;;;4.30;78.24;98186.72;4971256;28;20038;-70
2023/12/20 04:13:18;;;;;;;4.43;2.60;;;;;;;4.20;78.39;98167.88;4982807;28;20515;-71
2023/12/20 04:15:44;;;;;;;6.13;2.80;;;;;;;4.10;78.71;98153.41;4950947;28;20141;-66
2023/12/20 04:18:13;;;;;;;5.80;2.58;;;;;;;4.07;78.13;98157.72;4982640;28;20096;-66
2023/12/20 04:20:41;;;;;;;5.28;2.97;;;;;;;4.14;77.58;98175.69;5000118;28;20109;-70
2023/12/20 04:23:12;;;;;;;3.75;2.78;;;;;;;4.15;77.93;98169.69;4985728;28;20285;-72
2023/12/20 04:25:38;;;;;;;5.82;2.83;;;;;;;4.33;78.32;98204.69;4983798;28;20052;-69
2023/12/20 04:28:04;;;;;;;4.03;2.88;;;;;;;4.16;78.49;98176.53;4964581;28;20145;-70
2023/12/20 04:30:30;;;;;;;4.22;2.25;;;;;;;4.36;78.38;98204.66;4979821;28;20132;-71
2023/12/20 04:32:57;;;;;;;4.13;2.55;;;;;;;4.32;78.22;98209.00;4998662;28;20038;-71
2023/12/20 04:35:23;;;;;;;5.38;2.60;;;;;;;4.12;78.32;98177.44;4968430;28;20049;-70
2023/12/20 04:37:54;;;;;;;4.22;2.83;;;;;;;3.98;77.52;98162.09;4996600;28;20042;-71
2023/12/20 04:40:20;;;;;;;6.47;2.77;;;;;;;4.12;78.13;98190.31;4969475;28;20109;-71
2023/12/20 04:42:46;;;;;;;4.32;2.38;;;;;;;3.88;78.32;98153.59;4967750;28;20288;-71
2023/12/20 04:45:15;;;;;;;4.70;2.97;;;;;;;3.51;77.45;98090.41;4968953;28;20042;-73
2023/12/20 04:47:47;;;;;;;11.18;3.25;;;;;;;4.09;78.73;98196.31;4984191;28;20045;-73
2023/12/20 04:50:14;;;;;;;5.40;2.38;;;;;;;4.13;78.37;98208.28;4990824;28;20042;-71
2023/12/20 04:52:40;;;;;;;5.18;2.50;;;;;;;3.99;78.24;98179.25;4969068;28;20360;-69
2023/12/20 04:55:08;;;;;;;5.32;3.00;;;;;;;4.29;77.96;98214.19;4982675;28;20417;-72
2023/12/20 04:57:37;;;;;;;4.50;2.60;;;;;;;4.19;78.36;98199.69;4972283;28;20042;-72
2023/12/20 05:00:12;;;;;;;4.07;2.63;;;;;;;4.20;78.03;98206.50;4967982;28;20148;-71
2023/12/20 05:02:40;;;;;;;4.25;2.78;;;;;;;4.10;78.10;98185.16;4955327;28;20046;-73
2023/12/20 05:05:06;;;;;;;5.63;2.97;;;;;;;4.31;77.89;98212.44;4982048;28;20069;-73
2023/12/20 05:07:32;;;;;;;3.78;2.50;;;;;;;4.32;77.85;98208.13;4999597;28;20417;-71
2023/12/20 05:09:59;;;;;;;4.28;2.80;;;;;;;3.85;78.22;98135.59;4979975;28;20468;-73
2023/12/20 05:12:25;;;;;;;4.30;2.50;;;;;;;4.21;77.95;98188.50;4979336;28;20701;-69
2023/12/20 05:14:52;;;;;;;8.27;3.40;;;;;;;4.31;77.97;98206.41;4980971;28;20053;-71
2023/12/20 05:17:20;;;;;;;5.65;2.80;;;;;;;4.38;77.41;98218.38;4998559;28;20034;-73
2023/12/20 05:19:46;;;;;;;4.47;2.50;;;;;;;4.38;77.97;98223.53;4969783;28;20048;-72
2023/12/20 05:22:15;;;;;;;5.30;2.70;;;;;;;4.31;78.00;98219.28;4964142;28;20037;-71
2023/12/20 05:24:40;;;;;;;3.05;2.33;;;;;;;4.17;77.95;98186.81;4976294;28;20050;-72
2023/12/20 05:27:09;;;;;;;5.82;2.40;;;;;;;4.10;77.07;98195.44;4981330;28;20066;-70
2023/12/20 05:29:35;;;;;;;4.38;2.47;;;;;;;4.17;77.56;98209.97;4996546;28;20034;-71
2023/12/20 05:32:01;;;;;;;3.20;2.50;;;;;;;4.14;77.33;98210.00;4983785;28;20074;-69
2023/12/20 05:34:27;;;;;;;2.80;2.03;;;;;;;3.88;77.97;98171.63;4967386;28;20041;-70
2023/12/20 05:36:56;;;;;;;4.53;2.40;;;;;;;4.28;77.87;98251.09;4981052;28;20042;-71
2023/12/20 05:39:22;;;;;;;6.13;2.60;;;;;;;4.26;77.73;98249.41;4980950;28;20042;-70
2023/12/20 05:41:51;;;;;;;4.97;2.58;;;;;;;4.02;77.39;98223.81;4975758;28;20575;-71
2023/12/20 05:44:19;;;;;;;4.30;2.65;;;;;;;4.09;77.78;98228.94;4971143;28;20042;-70
2023/12/20 05:46:45;;;;;;;5.05;2.40;;;;;;;4.07;77.01;98234.09;4979950;28;20512;-71
2023/12/20 05:49:11;;;;;;;6.03;2.70;;;;;;;4.18;77.66;98257.19;4984506;28;20070;-71
2023/12/20 05:51:36;;;;;;;5.55;2.25;;;;;;;4.03;77.78;98222.97;4981502;28;20104;-71
2023/12/20 05:54:03;;;;;;;4.32;2.38;;;;;;;4.09;77.87;98244.38;4967116;28;20744;-70
2023/12/20 05:56:31;;;;;;;5.28;2.28;;;;;;;3.82;77.67;98203.41;4964075;28;20038;-71
2023/12/20 05:58:58;;;;;;;4.30;2.70;;;;;;;3.89;77.68;98215.34;4965150;28;20056;-71
2023/12/20 06:01:30;;;;;;;4.03;2.97;;;;;;;3.12;77.60;98105.25;4981352;28;20034;-70
2023/12/20 06:03:56;;;;;;;6.13;3.10;;;;;;;3.67;77.22;98193.19;4964586;28;20062;-71
2023/12/20 06:06:22;;;;;;;6.22;2.50;;;;;;;3.84;77.69;98223.97;4962925;28;20041;-72
2023/12/20 06:08:49;;;;;;;6.45;2.75;;;;;;;4.05;77.68;98251.28;4980603;28;20121;-70
2023/12/20 06:11:17;;;;;;;3.75;2.28;;;;;;;3.99;77.96;98238.44;4984192;28;20049;-69
2023/12/20 06:13:43;;;;;;;6.10;2.92;;;;;;;3.83;77.41;98224.81;4949200;28;20049;-70
2023/12/20 06:16:12;;;;;;;5.65;2.47;;;;;;;3.43;77.33;98167.63;4998974;28;20044;-71
2023/12/20 06:18:40;;;;;;;5.32;2.83;;;;;;;3.72;77.19;98210.34;4962027;28;20504;-71
2023/12/20 06:21:15;;;;;;;5.13;2.00;;;;;;;3.62;77.53;98208.66;4968794;28;20046;-67
2023/12/20 06:23:41;;;;;;;4.47;2.70;;;;;;;3.43;77.38;98161.63;4995020;28;20050;-68
2023/12/20 06:26:16;;;;;;;4.18;2.40;;;;;;;3.87;77.43;98239.38;4990819;28;20042;-76
2023/12/20 06:28:56;;;;;;;4.85;3.08;;;;;;;4.11;77.49;98269.25;5006668;28;20046;-71
2023/12/20 06:31:29;;;;;;;4.55;2.50;;;;;;;4.16;77.41;98271.81;4991649;28;20045;-71
2023/12/20 06:33:57;;;;;;;4.72;2.50;;;;;;;4.02;76.97;98241.84;5008749;28;20069;-70
2023/12/20 06:36:33;;;;;;;4.82;2.63;;;;;;;4.19;77.40;98253.75;4993380;28;20038;-76
2023/12/20 06:39:21;;;;;;;5.85;2.45;;;;;;;3.84;77.14;98183.66;5008303;28;20512;-75
2023/12/20 06:41:49;;;;;;;4.78;2.83;;;;;;;4.38;77.48;98257.03;4991704;28;20057;-77
2023/12/20 06:44:16;;;;;;;4.47;2.70;;;;;;;3.91;77.40;98164.72;5007934;28;20049;-73
2023/12/20 06:46:45;;;;;;;6.85;2.45;;;;;;;4.36;77.39;98231.28;4977397;28;20022;-73
2023/12/20 06:49:14;;;;;;;6.38;2.50;;;;;;;4.20;77.21;98203.94;4997767;28;20527;-73
2023/12/20 06:51:47;;;;;;;4.28;2.55;;;;;;;4.53;76.71;98254.31;4994304;28;20045;-72
2023/12/20 06:54:19;;;;;;;3.35;2.30;;;;;;;3.99;77.21;98153.50;4982520;28;20078;-71
2023/12/20 06:56:47;;;;;;;4.40;2.50;;;;;;;4.41;76.83;98227.81;4999473;28;20042;-74
2023/12/20 06:59:14;;;;;;;5.15;2.38;;;;;;;4.31;76.88;98201.28;4964958;28;20056;-74
2023/12/20 07:01:48;;;;;;;3.90;2.45;;;;;;;4.67;77.49;98253.34;4980168;28;20034;-76
2023/12/20 07:04:19;;;;;;;2.90;2.20;;;;;;;4.62;77.26;98229.31;4997212;28;20042;-79
2023/12/20 07:07:00;;;;;;;4.35;2.35;;;;;;;4.79;76.36;98245.47;5017304;28;20038;-76
2023/12/20 07:09:33;;;;;;;2.95;2.15;;;;;;;4.83;76.25;98247.16;5001661;28;20050;-86
2023/12/20 07:12:19;;;;;;;3.50;2.20;;;;;;;4.08;76.26;98112.25;4999487;28;20042;-75
2023/12/20 07:14:49;;;;;;;4.35;2.10;;;;;;;4.31;76.43;98135.19;4966169;28;20046;-73
2023/12/20 07:17:15;;;;;;;3.72;2.25;;;;;;;4.98;76.24;98234.94;4985717;28;20046;-76
2023/12/20 07:19:42;;;;;;;7.25;2.33;;;;;;;5.13;76.28;98242.53;4994196;28;20054;-73
2023/12/20 07:22:15;;;;;;;3.33;2.15;;;;;;;5.19;76.25;98235.56;5016755;28;20073;-74
2023/12/20 07:24:41;;;;;;;3.55;2.17;;;;;;;5.08;76.26;98210.78;4973360;28;20034;-74
2023/12/20 07:27:10;;;;;;;3.40;2.10;;;;;;;5.22;75.98;98226.09;4999153;28;20049;-75
2023/12/20 07:29:42;;;;;;;4.72;2.20;;;;;;;5.32;75.72;98242.31;4996191;28;20046;-80
2023/12/20 07:32:13;;;;;;;2.95;2.00;;;;;;;5.32;75.50;98238.84;4997381;28;20123;-78
2023/12/20 07:34:39;;;;;;;4.47;2.33;;;;;;;5.45;75.40;98271.38;4986011;28;20018;-69
2023/12/20 07:37:14;;;;;;;4.18;2.30;;;;;;;5.45;75.02;98268.81;4978545;28;20042;-71
2023/12/20 07:39:50;;;;;;;3.65;1.70;;;;;;;5.25;75.05;98238.09;4994855;28;20038;-71
2023/12/20 07:42:19;;;;;;;2.35;1.92;;;;;;;5.36;75.01;98259.47;5010268;28;20110;-72
2023/12/20 07:44:45;;;;;;;4.57;2.20;;;;;;;4.81;75.13;98176.72;4991688;28;20129;-73
2023/12/20 07:47:15;;;;;;;2.58;1.80;;;;;;;5.38;74.56;98277.47;4993200;28;20526;-71
2023/12/20 07:49:51;;;;;;;3.05;1.85;;;;;;;4.93;74.22;98227.28;4995063;28;20137;-71
2023/12/20 07:52:26;;;;;;;2.17;1.90;;;;;;;5.12;74.64;98253.72;5011827;28;20726;-70
2023/12/20 07:55:19;;;;;;;2.75;2.05;;;;;;;4.93;75.09;98214.38;4994308;28;20403;-72
2023/12/20 07:57:53;;;;;;;6.03;2.03;;;;;;;5.24;75.20;98275.06;5013217;28;20073;-71
2023/12/20 08:00:28;;;;;;;4.30;1.77;;;;;;;4.55;74.73;98146.09;4992897;28;20042;-70
2023/12/20 08:02:55;;;;;;;4.07;2.20;;;;;;;5.33;74.68;98261.19;4979305;28;20395;-73
2023/12/20 08:05:29;;;;;;;3.60;2.00;;;;;;;5.32;74.52;98269.81;5010386;28;20097;-70
2023/12/20 08:07:55;;;;;;;4.15;2.28;;;;;;;4.94;74.68;98213.53;4980810;28;20049;-71
2023/12/20 08:10:29;;;;;;;5.10;2.22;;;;;;;5.42;74.63;98292.06;4989985;28;20049;-73
2023/12/20 08:12:59;;;;;;;4.93;2.00;;;;;;;4.94;74.05;98212.69;4977400;28;20050;-73
2023/12/20 08:15:28;;;;;;;7.38;2.05;;;;;;;5.06;74.11;98227.16;5009611;28;20050;-70
2023/12/20 08:17:54;;;;;;;5.32;2.20;;;;;;;5.47;74.30;98294.56;4992378;28;20170;-72
2023/12/20 08:20:30;;;;;;;3.78;2.10;;;;;;;5.35;74.36;98265.50;4980842;28;20044;-72
2023/12/20 08:23:03;;;;;;;4.82;2.13;;;;;;;5.41;74.58;98275.72;4998601;28;20090;-72
2023/12/20 08:25:29;;;;;;;2.55;1.98;;;;;;;5.43;74.07;98273.97;4996106;28;20089;-71
2023/12/20 08:27:55;;;;;;;3.40;1.88;;;;;;;5.46;74.04;98267.06;5008243;28;20488;-71
2023/12/20 08:30:36;;;;;;;;;;;;;;;;;;;;;
2023/12/20 08:33:04;;;;;;;4.20;2.10;;;;;;;5.16;74.00;98207.28;5008106;28;20113;-73
2023/12/20 08:35:30;;;;;;;2.95;2.00;;;;;;;5.17;74.01;98203.81;4991386;28;20530;-70
2023/12/20 08:38:03;;;;;;;3.40;2.30;;;;;;;5.22;74.22;98207.16;4976667;28;20045;-71
2023/12/20 08:40:36;;;;;;;3.03;2.00;;;;;;;5.50;74.16;98248.09;5009018;28;20038;-69
2023/12/20 08:43:17;;;;;;;;;;;;;;;;;;;;;
2023/12/20 08:45:50;;;;;;;3.60;2.50;;;;;;;5.23;73.37;98232.09;4991446;28;20046;-69
2023/12/20 08:48:19;;;;;;;4.82;2.60;;;;;;;5.22;73.48;98230.38;4989415;28;20046;-69
2023/12/20 08:50:52;;;;;;;6.88;2.90;;;;;;;5.41;74.15;98254.22;5006141;28;20090;-69
2023/12/20 08:53:21;;;;;;;4.22;2.40;;;;;;;5.53;73.92;98279.03;4991125;28;20050;-70
2023/12/20 08:55:47;;;;;;;3.60;2.30;;;;;;;5.34;73.54;98242.28;4993291;28;20066;-72
2023/12/20 08:58:48;;;;;;;4.70;2.60;;;;;;;5.57;73.65;98273.78;4972344;28;20046;-70
2023/12/20 09:01:14;;;;;;;4.22;2.72;;;;;;;5.53;73.52;98271.28;4990903;28;20042;-71
2023/12/20 09:03:40;;;;;;;4.88;2.30;;;;;;;5.30;73.74;98241.47;5008393;28;20132;-71
2023/12/20 09:06:06;;;;;;;4.57;2.70;;;;;;;5.40;73.83;98257.69;4992760;28;20068;-72
2023/12/20 09:08:47;;;;;;;3.88;2.70;;;;;;;5.31;73.90;98255.19;4992717;28;20049;-72
2023/12/20 09:11:17;;;;;;;4.35;3.05;;;;;;;5.22;73.44;98232.97;4994757;28;20061;-71
2023/12/20 09:13:50;;;;;;;4.40;2.38;;;;;;;4.83;73.15;98182.72;4980550;28;20140;-72
2023/12/20 09:16:19;;;;;;;4.97;2.95;;;;;;;5.25;74.00;98253.56;5011824;28;20613;-72
2023/12/20 09:19:04;;;;;;;6.03;3.15;;;;;;;5.26;74.00;98242.38;5006539;28;20042;-74
2023/12/20 09:21:30;;;;;;;6.03;3.00;;;;;;;5.42;74.00;98268.84;5018209;28;20050;-73
2023/12/20 09:23:56;;;;;;;4.85;3.08;;;;;;;5.47;74.27;98282.53;4996100;28;20038;-73
2023/12/20 09:26:28;;;;;;;;;;;;;;;5.50;73.89;98271.31;4986738;28;20049;-72
2023/12/20 09:28:54;;;;;;;3.92;2.97;;;;;;;5.35;73.74;98259.47;4964231;28;19917;-74
2023/12/20 09:31:23;;;;;;;5.45;3.25;;;;;;;5.30;73.63;98249.22;4961601;28;20037;-73
2023/12/20 09:33:53;;;;;;;4.30;2.58;;;;;;;5.28;73.38;98245.78;4983019;28;20057;-73
2023/12/20 09:36:22;;;;;;;5.22;2.90;;;;;;;4.97;73.66;98200.59;4996477;28;20052;-72
2023/12/20 09:39:00;;;;;;;;;;;;;;;5.45;73.98;98278.25;4996477;28;20065;-72
2023/12/20 09:41:46;;;;;;;3.67;2.80;;;;;;;4.65;73.33;98155.41;4991255;28;19917;-71
2023/12/20 09:44:18;;;;;;;6.63;2.65;;;;;;;5.07;73.58;98215.97;5005808;28;20496;-73
2023/12/20 09:46:50;;;;;;;5.32;2.53;;;;;;;5.18;73.82;98228.75;4992550;28;20027;-73
2023/12/20 09:49:22;;;;;;;3.65;2.13;;;;;;;5.06;73.42;98188.47;4983304;28;20108;-71
2023/12/20 09:52:03;;;;;;;3.97;2.53;;;;;;;5.42;73.81;98241.31;4996700;28;20046;-72
2023/12/20 09:54:35;;;;;;;5.53;2.58;;;;;;;5.00;73.83;98171.34;4992165;28;20049;-73
2023/12/20 09:57:05;;;;;;;3.28;2.40;;;;;;;5.27;73.57;98213.13;5007790;28;20030;-73
2023/12/20 09:59:51;;;;;;;6.85;3.05;;;;;;;5.25;74.22;98202.84;4995722;28;20042;-74
2023/12/20 10:02:27;;;;;;;5.95;2.60;;;;;;;5.53;73.74;98228.25;4987748;28;20052;-72
2023/12/20 10:05:10;;;;;;;4.28;2.30;;;;;;;5.63;73.46;98238.47;5010237;28;20077;-72
2023/12/20 10:07:38;;;;;;;2.47;2.25;;;;;;;5.55;73.53;98248.91;4995350;28;20050;-70
2023/12/20 10:10:12;;;;;;;5.97;2.40;;;;;;;5.21;73.70;98195.16;5008583;28;20098;-72
2023/12/20 10:12:38;;;;;;;4.63;2.40;;;;;;;5.59;73.50;98248.00;5008391;28;20042;-73
2023/12/20 10:15:06;;;;;;;4.25;2.40;;;;;;;5.57;73.45;98249.72;4975058;28;20064;-72
2023/12/20 10:17:33;;;;;;;3.92;2.42;;;;;;;5.36;73.78;98219.91;4975788;28;20133;-75
2023/12/20 10:19:59;;;;;;;4.53;2.22;;;;;;;5.06;73.54;98160.97;4988456;28;20037;-73
2023/12/20 10:22:59;;;;;;;4.15;2.15;;;;;;;5.51;73.34;98250.69;4993583;28;20735;-72
2023/12/20 10:25:28;;;;;;;3.03;2.00;;;;;;;5.52;73.60;98272.16;4991125;28;20042;-71
2023/12/20 10:28:14;;;;;;;4.32;2.00;;;;;;;4.93;73.83;98183.47;4975641;28;20080;-73
2023/12/20 10:30:41;;;;;;;2.35;1.98;;;;;;;4.85;73.86;98181.84;4971425;28;20573;-72
2023/12/20 10:33:13;;;;;;;3.80;2.33;;;;;;;5.42;73.93;98274.84;5010199;28;20046;-71
2023/12/20 10:35:45;;;;;;;3.58;2.47;;;;;;;5.02;73.90;98216.00;4991491;28;20205;-75
2023/12/20 10:38:17;;;;;;;3.53;2.40;;;;;;;4.84;73.24;98188.75;4982521;28;20050;-71
2023/12/20 10:41:04;;;;;;;2.70;2.13;;;;;;;5.33;73.92;98262.06;4976398;28;20521;-73
2023/12/20 10:43:33;;;;;;;3.03;2.47;;;;;;;5.15;73.75;98237.34;5004732;28;20061;-73
2023/12/20 10:46:03;;;;;;;2.92;2.20;;;;;;;4.83;73.41;98184.44;4992352;28;20048;-70
2023/12/20 10:48:35;;;;;;;5.32;2.50;;;;;;;5.15;73.72;98234.78;5008131;28;20034;-71
2023/12/20 10:51:05;;;;;;;3.65;2.10;;;;;;;5.21;73.43;98246.72;5007970;28;20037;-70
2023/12/20 10:53:36;;;;;;;4.22;2.65;;;;;;;4.89;73.46;98197.25;4980136;28;20042;-71
2023/12/20 10:56:07;;;;;;;4.05;2.20;;;;;;;5.18;73.85;98231.31;4990128;28;20033;-73
2023/12/20 10:58:44;;;;;;;3.22;2.13;;;;;;;5.16;73.61;98243.38;4967908;28;20046;-72
2023/12/20 11:01:20;;;;;;;3.10;2.28;;;;;;;5.19;73.65;98254.50;4971676;28;20173;-70
2023/12/20 11:03:50;;;;;;;3.45;2.40;;;;;;;4.85;73.35;98197.31;4995735;28;20795;-70
2023/12/20 11:07:03;;;;;;;3.90;2.63;;;;;;;4.98;73.94;98247.84;4986667;28;20621;-71
2023/12/20 11:09:38;;;;;;;4.43;2.40;;;;;;;5.23;74.04;98273.34;4968436;28;20069;-71
2023/12/20 11:12:44;;;;;;;2.97;2.38;;;;;;;5.22;73.66;98275.09;4956131;28;20038;-71
2023/12/20 11:15:15;;;;;;;4.07;2.42;;;;;;;5.28;74.17;98281.91;4969785;28;20058;-70
2023/12/20 11:17:54;;;;;;;5.45;2.90;;;;;;;5.32;74.45;98287.88;4968230;28;20097;-70
2023/12/20 11:20:34;;;;;;;3.17;2.38;;;;;;;4.90;73.64;98206.69;4986753;28;20049;-73
2023/12/20 11:23:02;;;;;;;3.72;2.47;;;;;;;5.17;73.74;98255.41;4955216;28;20074;-70
2023/12/20 11:25:51;;;;;;;4.03;2.20;;;;;;;4.72;73.63;98176.84;4984440;28;20053;-73
2023/12/20 11:28:38;;;;;;;3.10;2.15;;;;;;;5.12;73.46;98261.47;4968929;28;20043;-72
2023/12/20 11:31:10;;;;;;;3.67;2.30;;;;;;;5.03;74.03;98248.66;4942478;28;20058;-76
2023/12/20 11:33:46;;;;;;;;;;;;;;;5.19;73.98;98284.56;4968046;28;20058;-70
2023/12/20 11:36:20;;;;;;;4.88;2.50;;;;;;;4.93;74.30;98245.31;4979319;28;20408;-72
2023/12/20 11:38:59;;;;;;;4.13;2.70;;;;;;;5.10;74.15;98273.50;4976575;28;20042;-72
2023/12/20 11:41:33;;;;;;;4.97;2.53;;;;;;;5.19;73.97;98300.91;4975597;28;20042;-71
2023/12/20 11:44:00;;;;;;;;;;;;;;;5.19;73.77;98300.03;4996747;28;20473;-72
2023/12/20 11:46:27;;;;;;;3.65;2.42;;;;;;;5.17;74.26;98294.09;4990112;28;19922;-73
2023/12/20 11:48:57;;;;;;;5.07;2.83;;;;;;;4.98;74.06;98263.31;4963361;28;20038;-73
2023/12/20 11:51:32;;;;;;;3.78;2.45;;;;;;;4.82;74.21;98235.13;4973403;28;20038;-73
2023/12/20 11:54:03;;;;;;;4.18;2.72;;;;;;;4.98;74.19;98271.03;4971102;28;21802;-71
2023/12/20 11:56:32;;;;;;;5.15;2.80;;;;;;;4.63;74.28;98220.72;4976526;28;20635;-75
2023/12/20 11:58:59;;;;;;;4.32;2.70;;;;;;;4.83;74.40;98248.88;4971839;28;20139;-72
2023/12/20 12:01:35;;;;;;;3.95;2.50;;;;;;;4.88;73.96;98259.97;4974630;28;20045;-71